createdAt,value
2023-03-05T00:01:16.183Z,2.71
2023-03-05T00:03:42.852Z,2.57
2023-03-05T00:06:09.596Z,2.45
2023-03-05T00:08:36.931Z,2.59
2023-03-05T00:11:09.145Z,2.22
2023-03-05T00:13:36.816Z,2.27
2023-03-05T00:16:05.266Z,2.45
2023-03-05T00:18:32.315Z,2.04
2023-03-05T00:20:59.005Z,2.09
2023-03-05T00:23:25.797Z,1.88
2023-03-05T00:25:52.475Z,1.92
2023-03-05T00:28:19.065Z,1.86
2023-03-05T00:30:45.642Z,1.69
2023-03-05T00:33:13.072Z,1.79
2023-03-05T00:35:45.666Z,1.85
2023-03-05T00:38:12.924Z,1.74
2023-03-05T00:40:41.230Z,1.82
2023-03-05T00:43:08.679Z,1.92
2023-03-05T00:45:35.504Z,1.85
2023-03-05T00:48:02.772Z,1.89
2023-03-05T00:50:29.409Z,1.78
2023-03-05T00:52:56.041Z,1.72
2023-03-05T00:55:22.627Z,1.84
2023-03-05T00:57:49.426Z,2.04
2023-03-05T01:00:16.894Z,1.82
2023-03-05T01:02:43.681Z,1.87
2023-03-05T01:05:14.416Z,1.68
2023-03-05T01:07:41.363Z,1.58
2023-03-05T01:10:09.642Z,1.54
2023-03-05T01:12:37.171Z,1.71
2023-03-05T01:15:05.105Z,1.84
2023-03-05T01:17:31.861Z,2.01
2023-03-05T01:19:58.386Z,2.44
2023-03-05T01:22:25.145Z,2.62
2023-03-05T01:24:52.039Z,2.62
2023-03-05T01:27:18.578Z,2.74
2023-03-05T01:29:45.127Z,2.84
2023-03-05T01:32:12.933Z,2.95
2023-03-05T01:34:39.671Z,3.02
2023-03-05T01:37:06.237Z,2.88
2023-03-05T01:39:32.832Z,2.92
2023-03-05T01:41:59.691Z,3.10
2023-03-05T01:44:28.962Z,3.16
2023-03-05T01:46:55.561Z,3.22
2023-03-05T01:49:26.126Z,3.07
2023-03-05T01:52:18.108Z,3.10
2023-03-05T01:54:46.795Z,2.88
2023-03-05T01:57:18.025Z,2.12
2023-03-05T01:59:47.422Z,2.34
2023-03-05T02:02:14.145Z,2.56
2023-03-05T02:04:46.393Z,2.73
2023-03-05T02:07:14.396Z,2.48
2023-03-05T02:09:41.440Z,2.52
2023-03-05T02:12:10.117Z,2.57
2023-03-05T02:14:38.553Z,2.52
2023-03-05T02:17:05.801Z,2.52
2023-03-05T02:19:54.091Z,2.81
2023-03-05T02:22:22.594Z,2.43
2023-03-05T02:24:49.609Z,2.18
2023-03-05T02:27:16.626Z,2.28
2023-03-05T02:29:46.542Z,2.03
2023-03-05T02:32:14.272Z,2.14
2023-03-05T02:34:41.255Z,2.04
2023-03-05T02:37:10.222Z,1.91
2023-03-05T02:39:38.336Z,1.88
2023-03-05T02:42:05.528Z,2.16
2023-03-05T02:44:32.423Z,2.41
2023-03-05T02:46:59.050Z,2.24
2023-03-05T02:49:25.910Z,2.12
2023-03-05T02:51:52.731Z,2.00
2023-03-05T02:54:19.399Z,2.02
2023-03-05T02:56:46.004Z,1.88
2023-03-05T02:59:12.603Z,2.00
2023-03-05T03:01:39.580Z,1.78
2023-03-05T03:04:06.190Z,1.79
2023-03-05T03:06:32.840Z,1.82
2023-03-05T03:08:59.384Z,1.88
2023-03-05T03:11:25.937Z,1.93
2023-03-05T03:13:52.534Z,2.05
2023-03-05T03:16:19.177Z,2.04
2023-03-05T03:18:47.500Z,2.22
2023-03-05T03:21:18.929Z,2.36
2023-03-05T03:23:45.930Z,2.01
2023-03-05T03:26:12.534Z,2.11
2023-03-05T03:28:39.360Z,2.06
2023-03-05T03:31:05.940Z,2.42
2023-03-05T03:33:32.660Z,2.73
2023-03-05T03:35:59.410Z,2.98
2023-03-05T03:38:26.039Z,2.97
2023-03-05T03:40:52.568Z,2.46
2023-03-05T03:43:19.132Z,2.28
2023-03-05T03:45:45.982Z,2.28
2023-03-05T03:48:12.592Z,2.01
2023-03-05T03:50:43.178Z,2.09
2023-03-05T03:53:14.160Z,2.03
2023-03-05T03:55:46.416Z,1.99
2023-03-05T03:58:13.223Z,2.08
2023-03-05T04:00:40.820Z,2.17
2023-03-05T04:03:07.887Z,2.24
2023-03-05T04:05:34.446Z,1.95
2023-03-05T04:08:01.427Z,1.79
2023-03-05T04:10:28.004Z,1.91
2023-03-05T04:12:54.642Z,2.04
2023-03-05T04:15:21.233Z,1.94
2023-03-05T04:17:47.907Z,2.13
2023-03-05T04:20:14.488Z,2.25
2023-03-05T04:22:41.086Z,2.36
2023-03-05T04:25:08.363Z,2.36
2023-03-05T04:27:34.919Z,2.24
2023-03-05T04:30:01.571Z,2.57
2023-03-05T04:32:29.796Z,2.23
2023-03-05T04:34:57.488Z,2.23
2023-03-05T04:37:25.697Z,2.25
2023-03-05T04:39:53.165Z,2.46
2023-03-05T04:42:21.091Z,2.84
2023-03-05T04:44:49.274Z,3.03
2023-03-05T04:47:16.859Z,2.71
2023-03-05T04:49:44.185Z,2.73
2023-03-05T04:52:12.548Z,2.70
2023-03-05T04:54:39.250Z,2.57
2023-03-05T04:57:06.389Z,2.33
2023-03-05T04:59:33.041Z,2.39
2023-03-05T05:01:59.670Z,2.39
2023-03-05T05:04:26.286Z,2.39
2023-03-05T05:06:56.080Z,2.48
2023-03-05T05:09:24.767Z,2.64
2023-03-05T05:11:51.427Z,2.25
2023-03-05T05:14:18.755Z,2.36
2023-03-05T05:16:45.574Z,2.17
2023-03-05T05:19:12.270Z,2.17
2023-03-05T05:21:38.891Z,2.00
2023-03-05T05:24:05.754Z,2.25
2023-03-05T05:26:32.348Z,1.99
2023-03-05T05:28:58.927Z,2.15
2023-03-05T05:31:25.732Z,1.98
2023-03-05T05:33:52.380Z,2.15
2023-03-05T05:36:19.447Z,2.22
2023-03-05T05:38:46.120Z,2.35
2023-03-05T05:41:15.904Z,2.27
2023-03-05T05:43:42.792Z,2.25
2023-03-05T05:46:13.822Z,2.23
2023-03-05T05:48:40.533Z,2.32
2023-03-05T05:51:12.319Z,2.05
2023-03-05T05:53:39.461Z,2.06
2023-03-05T05:56:08.049Z,2.28
2023-03-05T05:58:35.955Z,2.46
2023-03-05T06:01:02.815Z,2.13
2023-03-05T06:03:29.429Z,2.37
2023-03-05T06:05:56.820Z,2.33
2023-03-05T06:08:23.609Z,2.17
2023-03-05T06:10:56.149Z,2.20
2023-03-05T06:13:22.772Z,2.14
2023-03-05T06:15:57.987Z,2.22
2023-03-05T06:18:24.669Z,2.23
2023-03-05T06:20:56.382Z,1.98
2023-03-05T06:23:23.684Z,2.06
2023-03-05T06:25:50.430Z,2.08
2023-03-05T06:28:17.111Z,2.22
2023-03-05T06:30:43.804Z,2.06
2023-03-05T06:33:10.856Z,2.23
2023-03-05T06:35:39.985Z,2.41
2023-03-05T06:38:07.888Z,2.35
2023-03-05T06:40:35.272Z,2.09
2023-03-05T06:43:01.845Z,2.05
2023-03-05T06:45:28.565Z,2.04
2023-03-05T06:47:55.191Z,2.24
2023-03-05T06:50:21.802Z,2.11
2023-03-05T06:52:51.401Z,2.05
2023-03-05T06:55:19.013Z,1.97
2023-03-05T06:57:45.660Z,1.89
2023-03-05T07:00:12.880Z,2.22
2023-03-05T07:02:39.645Z,2.26
2023-03-05T07:05:07.789Z,2.29
2023-03-05T07:07:34.945Z,2.15
2023-03-05T07:10:01.771Z,2.35
2023-03-05T07:12:28.426Z,2.22
2023-03-05T07:14:54.974Z,2.36
2023-03-05T07:17:21.568Z,2.14
2023-03-05T07:19:48.143Z,2.10
2023-03-05T07:22:14.775Z,1.96
2023-03-05T07:24:41.338Z,2.30
2023-03-05T07:27:07.891Z,2.15
2023-03-05T07:29:34.445Z,2.26
2023-03-05T07:32:01.022Z,2.26
2023-03-05T07:34:27.679Z,2.29
2023-03-05T07:36:56.520Z,2.38
2023-03-05T07:39:23.242Z,2.28
2023-03-05T07:41:51.463Z,2.32
2023-03-05T07:44:26.142Z,2.48
2023-03-05T07:46:52.717Z,2.45
2023-03-05T07:49:19.300Z,2.61
2023-03-05T07:51:45.872Z,2.40
2023-03-05T07:54:12.514Z,2.22
2023-03-05T07:56:39.124Z,2.61
2023-03-05T07:59:10.548Z,2.49
2023-03-05T08:01:37.490Z,2.24
2023-03-05T08:04:05.813Z,2.27
2023-03-05T08:06:32.393Z,2.40
2023-03-05T08:08:59.715Z,2.23
2023-03-05T08:11:28.489Z,2.27
2023-03-05T08:13:55.142Z,2.18
2023-03-05T08:16:22.326Z,2.55
2023-03-05T08:18:49.194Z,2.56
2023-03-05T08:21:18.740Z,2.51
2023-03-05T08:23:45.678Z,2.73
2023-03-05T08:26:14.684Z,2.60
2023-03-05T08:28:41.236Z,2.58
2023-03-05T08:31:14.294Z,2.51
2023-03-05T08:33:41.726Z,2.74
2023-03-05T08:36:09.562Z,2.88
2023-03-05T08:38:36.751Z,2.65
2023-03-05T08:41:03.706Z,2.61
2023-03-05T08:43:31.200Z,2.66
2023-03-05T08:46:00.417Z,2.61
2023-03-05T08:48:28.162Z,2.91
2023-03-05T08:50:56.310Z,2.89
2023-03-05T08:53:23.236Z,2.89
2023-03-05T08:55:59.752Z,2.68
2023-03-05T08:58:26.704Z,2.92
2023-03-05T09:00:53.280Z,2.94
2023-03-05T09:03:19.942Z,3.02
2023-03-05T09:05:47.064Z,2.98
2023-03-05T09:08:14.419Z,2.92
2023-03-05T09:10:42.856Z,2.91
2023-03-05T09:13:09.961Z,2.90
2023-03-05T09:15:37.151Z,3.01
2023-03-05T09:18:03.874Z,3.12
2023-03-05T09:20:30.436Z,3.28
2023-03-05T09:22:57.179Z,3.23
2023-03-05T09:25:23.796Z,3.32
2023-03-05T09:27:50.397Z,3.50
2023-03-05T09:30:17.293Z,3.17
2023-03-05T09:32:43.953Z,3.52
2023-03-05T09:35:11.053Z,3.33
2023-03-05T09:37:37.640Z,3.40
2023-03-05T09:40:04.639Z,3.41
2023-03-05T09:42:43.372Z,3.67
2023-03-05T09:45:19.889Z,3.82
2023-03-05T09:48:06.598Z,3.71
2023-03-05T09:50:41.343Z,3.68
2023-03-05T09:53:28.079Z,3.70
2023-03-05T09:55:57.639Z,3.74
2023-03-05T09:58:40.981Z,4.01
2023-03-05T10:01:13.951Z,4.02
2023-03-05T10:03:58.084Z,3.81
2023-03-05T10:07:00.038Z,4.03
2023-03-05T10:09:45.450Z,4.01
2023-03-05T10:12:44.663Z,4.24
2023-03-05T10:15:56.304Z,4.13
2023-03-05T10:18:46.418Z,4.18
2023-03-05T10:21:13.019Z,4.39
2023-03-05T10:23:58.753Z,4.51
2023-03-05T10:26:47.191Z,4.51
2023-03-05T10:29:23.230Z,4.49
2023-03-05T10:32:00.826Z,4.67
2023-03-05T10:34:31.413Z,4.75
2023-03-05T10:37:39.288Z,4.56
2023-03-05T10:40:11.813Z,4.71
2023-03-05T10:42:44.416Z,4.83
2023-03-05T10:45:36.840Z,4.58
2023-03-05T10:48:06.505Z,4.73
2023-03-05T10:50:47.086Z,4.95
2023-03-05T10:53:34.897Z,5.00
2023-03-05T10:56:05.589Z,4.96
2023-03-05T10:58:33.152Z,4.76
2023-03-05T11:00:59.722Z,4.92
2023-03-05T11:03:26.385Z,5.06
2023-03-05T11:06:01.919Z,4.83
2023-03-05T11:08:35.731Z,4.96
2023-03-05T11:11:15.432Z,5.14
2023-03-05T11:13:48.401Z,5.34
2023-03-05T11:16:21.086Z,5.21
2023-03-05T11:18:47.906Z,5.23
2023-03-05T11:21:29.166Z,5.28
2023-03-05T11:24:24.853Z,5.04
2023-03-05T11:26:54.266Z,5.00
2023-03-05T11:29:20.803Z,4.97
2023-03-05T11:31:47.538Z,4.91
2023-03-05T11:34:17.179Z,5.32
2023-03-05T11:37:06.228Z,5.38
2023-03-05T11:39:36.684Z,5.13
2023-03-05T11:42:13.722Z,5.27
2023-03-05T11:44:48.216Z,5.37
2023-03-05T11:47:44.456Z,4.83
2023-03-05T11:50:22.591Z,4.99
2023-03-05T11:52:51.266Z,4.96
2023-03-05T11:55:19.512Z,5.49
2023-03-05T11:58:11.444Z,5.56
2023-03-05T12:00:41.526Z,5.05
2023-03-05T12:03:13.849Z,5.07
2023-03-05T12:05:45.728Z,4.96
2023-03-05T12:08:21.365Z,5.40
2023-03-05T12:10:47.956Z,5.37
2023-03-05T12:13:36.577Z,5.41
2023-03-05T12:16:24.324Z,5.58
2023-03-05T12:19:19.569Z,5.28
2023-03-05T12:21:50.808Z,5.31
2023-03-05T12:24:24.767Z,5.27
2023-03-05T12:27:04.772Z,5.28
2023-03-05T12:29:37.315Z,5.45
2023-03-05T12:32:05.407Z,5.39
2023-03-05T12:34:40.947Z,5.40
2023-03-05T12:37:23.270Z,5.61
2023-03-05T12:40:23.759Z,5.91
2023-03-05T12:42:56.039Z,5.83
2023-03-05T12:45:36.808Z,5.68
2023-03-05T12:48:03.547Z,5.61
2023-03-05T12:50:30.025Z,5.52
2023-03-05T12:53:04.083Z,5.34
2023-03-05T12:55:57.933Z,5.38
2023-03-05T12:58:45.876Z,5.54
2023-03-05T13:01:29.935Z,5.81
2023-03-05T13:04:00.189Z,5.77
2023-03-05T13:06:37.898Z,5.51
2023-03-05T13:09:15.784Z,5.69
2023-03-05T13:11:44.742Z,5.33
2023-03-05T13:14:32.892Z,5.53
2023-03-05T13:17:00.416Z,5.68
2023-03-05T13:19:28.277Z,5.38
2023-03-05T13:22:00.363Z,5.32
2023-03-05T13:24:27.697Z,5.50
2023-03-05T13:26:54.516Z,5.66
2023-03-05T13:29:30.640Z,5.62
2023-03-05T13:32:00.662Z,5.62
2023-03-05T13:34:46.137Z,5.76
2023-03-05T13:37:18.500Z,5.72
2023-03-05T13:39:58.726Z,5.74
2023-03-05T13:42:34.707Z,5.76
2023-03-05T13:45:01.394Z,5.75
2023-03-05T13:47:31.877Z,5.79
2023-03-05T13:50:19.915Z,5.59
2023-03-05T13:52:46.481Z,5.81
2023-03-05T13:55:16.849Z,5.62
2023-03-05T13:57:45.143Z,5.65
2023-03-05T14:00:38.867Z,5.72
2023-03-05T14:03:20.634Z,5.69
2023-03-05T14:05:49.863Z,5.74
2023-03-05T14:08:22.864Z,5.64
2023-03-05T14:10:50.568Z,5.70
2023-03-05T14:13:20.710Z,5.39
2023-03-05T14:16:04.723Z,5.50
2023-03-05T14:18:31.550Z,5.57
2023-03-05T14:21:01.524Z,5.37
2023-03-05T14:23:48.195Z,5.77
2023-03-05T14:26:34.878Z,5.69
2023-03-05T14:29:09.111Z,5.79
2023-03-05T14:31:45.680Z,5.55
2023-03-05T14:34:20.618Z,5.73
2023-03-05T14:36:49.832Z,5.84
2023-03-05T14:39:28.050Z,5.85
2023-03-05T14:41:54.628Z,5.88
2023-03-05T14:44:25.279Z,5.67
2023-03-05T14:46:52.086Z,5.44
2023-03-05T14:49:18.724Z,5.42
2023-03-05T14:51:46.931Z,5.07
2023-03-05T14:54:23.224Z,5.06
2023-03-05T14:56:50.368Z,4.89
2023-03-05T14:59:18.381Z,4.90
2023-03-05T15:01:45.141Z,4.92
2023-03-05T15:04:11.761Z,5.11
2023-03-05T15:06:41.050Z,4.90
2023-03-05T15:09:08.096Z,4.84
2023-03-05T15:11:35.057Z,5.02
2023-03-05T15:14:01.714Z,5.10
2023-03-05T15:16:28.580Z,4.85
2023-03-05T15:18:55.396Z,4.95
2023-03-05T15:21:22.005Z,4.66
2023-03-05T15:23:48.629Z,4.56
2023-03-05T15:26:15.527Z,4.78
2023-03-05T15:28:43.248Z,4.73
2023-03-05T15:31:10.871Z,5.12
2023-03-05T15:33:37.909Z,5.13
2023-03-05T15:36:04.932Z,4.96
2023-03-05T15:38:31.557Z,4.92
2023-03-05T15:41:00.551Z,5.19
2023-03-05T15:43:28.382Z,5.14
2023-03-05T15:45:55.040Z,5.10
2023-03-05T15:48:21.713Z,5.25
2023-03-05T15:50:48.324Z,5.13
2023-03-05T15:53:17.974Z,4.81
2023-03-05T15:55:45.841Z,4.88
2023-03-05T15:58:16.648Z,4.80
2023-03-05T16:00:44.262Z,5.15
2023-03-05T16:03:11.202Z,5.20
2023-03-05T16:05:38.241Z,5.15
2023-03-05T16:08:05.642Z,4.94
2023-03-05T16:10:32.664Z,5.10
2023-03-05T16:13:04.097Z,4.95
2023-03-05T16:15:33.080Z,5.02
2023-03-05T16:18:04.122Z,4.99
2023-03-05T16:20:30.791Z,5.13
2023-03-05T16:22:57.452Z,5.14
2023-03-05T16:25:24.040Z,5.29
2023-03-05T16:27:50.637Z,5.13
2023-03-05T16:30:17.769Z,4.88
2023-03-05T16:32:44.460Z,4.86
2023-03-05T16:35:12.360Z,5.06
2023-03-05T16:37:41.847Z,4.91
2023-03-05T16:40:11.530Z,4.86
2023-03-05T16:42:38.089Z,4.80
2023-03-05T16:45:06.339Z,4.86
2023-03-05T16:47:33.223Z,4.87
2023-03-05T16:50:00.854Z,4.75
2023-03-05T16:52:28.967Z,4.72
2023-03-05T16:54:55.670Z,4.81
2023-03-05T16:57:23.986Z,4.72
2023-03-05T16:59:51.382Z,4.83
2023-03-05T17:02:18.549Z,4.90
2023-03-05T17:04:46.158Z,4.91
2023-03-05T17:07:12.866Z,5.10
2023-03-05T17:09:39.689Z,5.17
2023-03-05T17:12:06.605Z,5.21
2023-03-05T17:14:33.274Z,5.11
2023-03-05T17:17:01.225Z,5.04
2023-03-05T17:19:28.133Z,5.14
2023-03-05T17:21:54.787Z,5.27
2023-03-05T17:24:22.355Z,4.65
2023-03-05T17:26:49.776Z,4.61
2023-03-05T17:29:19.638Z,5.01
2023-03-05T17:31:46.746Z,5.13
2023-03-05T17:34:13.513Z,5.27
2023-03-05T17:36:40.138Z,5.20
2023-03-05T17:39:06.878Z,5.18
2023-03-05T17:41:33.657Z,5.01
2023-03-05T17:44:00.198Z,5.23
2023-03-05T17:46:26.783Z,5.02
2023-03-05T17:48:53.347Z,5.24
2023-03-05T17:51:19.899Z,5.21
2023-03-05T17:53:46.472Z,5.03
2023-03-05T17:56:14.586Z,4.96
2023-03-05T17:58:41.484Z,5.05
2023-03-05T18:01:08.191Z,4.95
2023-03-05T18:03:35.743Z,5.07
2023-03-05T18:06:03.705Z,5.09
2023-03-05T18:08:30.617Z,5.01
2023-03-05T18:10:57.231Z,5.14
2023-03-05T18:13:23.829Z,4.78
2023-03-05T18:15:50.380Z,4.51
2023-03-05T18:18:18.464Z,4.40
2023-03-05T18:20:46.021Z,4.28
2023-03-05T18:23:12.707Z,4.20
2023-03-05T18:25:39.586Z,4.43
2023-03-05T18:28:09.067Z,4.36
2023-03-05T18:30:36.030Z,4.14
2023-03-05T18:33:03.700Z,4.15
2023-03-05T18:35:30.749Z,4.70
2023-03-05T18:37:57.556Z,4.79
2023-03-05T18:40:26.459Z,4.78
2023-03-05T18:42:53.457Z,4.66
2023-03-05T18:45:21.525Z,4.54
2023-03-05T18:47:49.017Z,4.86
2023-03-05T18:50:18.447Z,4.92
2023-03-05T18:52:45.679Z,5.00
2023-03-05T18:55:17.795Z,4.70
2023-03-05T18:57:44.681Z,4.63
2023-03-05T19:00:22.565Z,4.80
2023-03-05T19:02:49.278Z,4.85
2023-03-05T19:05:16.969Z,4.54
2023-03-05T19:07:43.785Z,4.80
2023-03-05T19:10:12.251Z,4.87
2023-03-05T19:12:49.210Z,4.50
2023-03-05T19:15:17.212Z,4.87
2023-03-05T19:17:43.894Z,4.81
2023-03-05T19:20:12.456Z,4.90
2023-03-05T19:22:39.820Z,4.79
2023-03-05T19:25:07.361Z,4.69
2023-03-05T19:27:34.741Z,4.43
2023-03-05T19:30:01.524Z,4.50
2023-03-05T19:32:28.257Z,4.71
2023-03-05T19:34:56.785Z,4.06
2023-03-05T19:37:23.818Z,4.17
2023-03-05T19:39:50.423Z,4.54
2023-03-05T19:42:17.089Z,4.58
2023-03-05T19:44:43.614Z,4.43
2023-03-05T19:47:10.227Z,4.29
2023-03-05T19:49:36.855Z,4.20
2023-03-05T19:52:04.214Z,4.18
2023-03-05T19:54:30.996Z,4.28
2023-03-05T19:56:58.896Z,4.56
2023-03-05T19:59:25.973Z,4.74
2023-03-05T20:01:52.642Z,4.76
2023-03-05T20:04:21.889Z,4.70
2023-03-05T20:06:48.899Z,4.38
2023-03-05T20:09:16.285Z,4.11
2023-03-05T20:11:43.603Z,4.44
2023-03-05T20:14:10.404Z,4.44
2023-03-05T20:16:37.786Z,4.22
2023-03-05T20:19:06.336Z,4.14
2023-03-05T20:21:36.159Z,4.48
2023-03-05T20:24:07.802Z,4.31
2023-03-05T20:26:37.295Z,4.12
2023-03-05T20:29:04.833Z,4.05
2023-03-05T20:31:33.903Z,4.11
2023-03-05T20:34:00.547Z,4.04
2023-03-05T20:36:27.213Z,3.98
2023-03-05T20:38:53.896Z,4.16
2023-03-05T20:41:23.643Z,3.97
2023-03-05T20:43:51.101Z,4.00
2023-03-05T20:46:19.078Z,4.02
2023-03-05T20:48:48.027Z,4.00
2023-03-05T20:51:30.628Z,4.01
2023-03-05T20:54:02.453Z,4.09
2023-03-05T20:56:32.258Z,4.08
2023-03-05T20:59:04.928Z,3.99
2023-03-05T21:01:34.146Z,3.99
2023-03-05T21:04:01.390Z,4.00
2023-03-05T21:06:29.819Z,4.22
2023-03-05T21:08:57.150Z,4.57
2023-03-05T21:11:24.409Z,4.20
2023-03-05T21:13:51.005Z,4.25
2023-03-05T21:16:20.701Z,4.24
2023-03-05T21:18:48.053Z,4.54
2023-03-05T21:21:15.022Z,4.51
2023-03-05T21:23:41.574Z,4.61
2023-03-05T21:26:08.583Z,4.52
2023-03-05T21:28:35.195Z,4.47
2023-03-05T21:31:11.159Z,4.54
2023-03-05T21:33:38.585Z,4.30
2023-03-05T21:36:05.371Z,4.28
2023-03-05T21:38:33.936Z,4.30
2023-03-05T21:41:01.085Z,4.48
2023-03-05T21:43:27.833Z,4.45
2023-03-05T21:45:54.857Z,4.33
2023-03-05T21:48:22.276Z,4.31
2023-03-05T21:50:49.887Z,4.39
2023-03-05T21:53:17.904Z,4.45
2023-03-05T21:56:03.122Z,4.51
2023-03-05T21:58:34.638Z,4.51
2023-03-05T22:01:01.696Z,4.45
2023-03-05T22:03:29.414Z,4.45
2023-03-05T22:05:56.897Z,4.39
2023-03-05T22:08:24.449Z,4.42
2023-03-05T22:10:51.652Z,4.47
2023-03-05T22:13:20.017Z,4.35
2023-03-05T22:15:55.463Z,3.63
2023-03-05T22:18:27.625Z,3.40
2023-03-05T22:20:55.761Z,3.33
2023-03-05T22:23:23.981Z,3.51
2023-03-05T22:25:56.553Z,3.67
2023-03-05T22:28:23.214Z,3.86
2023-03-05T22:30:49.781Z,3.69
2023-03-05T22:33:16.414Z,3.45
2023-03-05T22:35:43.246Z,3.43
2023-03-05T22:38:10.744Z,3.47
2023-03-05T22:40:41.536Z,3.22
2023-03-05T22:43:08.197Z,3.22
2023-03-05T22:45:34.739Z,3.47
2023-03-05T22:48:01.294Z,3.91
2023-03-05T22:50:28.333Z,4.12
2023-03-05T22:52:55.325Z,4.20
2023-03-05T22:55:22.277Z,4.10
2023-03-05T22:57:48.904Z,4.25
2023-03-05T23:00:21.382Z,4.28
2023-03-05T23:02:48.163Z,3.81
2023-03-05T23:05:14.749Z,3.44
2023-03-05T23:07:42.869Z,3.20
2023-03-05T23:10:17.185Z,3.28
2023-03-05T23:12:49.223Z,3.77
2023-03-05T23:15:21.917Z,3.39
2023-03-05T23:17:48.476Z,3.28
2023-03-05T23:20:16.906Z,3.06
2023-03-05T23:22:45.070Z,3.51
2023-03-05T23:25:14.019Z,3.57
2023-03-05T23:27:41.351Z,3.50
2023-03-05T23:30:17.305Z,3.36
2023-03-05T23:32:58.362Z,3.36
2023-03-05T23:35:27.836Z,3.20
2023-03-05T23:37:56.181Z,3.30
2023-03-05T23:40:25.376Z,3.68
2023-03-05T23:42:52.681Z,3.52
2023-03-05T23:45:20.907Z,3.41
2023-03-05T23:47:48.398Z,3.21
2023-03-05T23:50:18.253Z,3.46
2023-03-05T23:52:45.427Z,3.57
2023-03-05T23:55:18.859Z,3.37
2023-03-05T23:57:45.896Z,3.62
